createdAt,value
2023-09-28T00:01:27.788Z,18.10
2023-09-28T00:06:46.432Z,18.00
2023-09-28T00:12:06.633Z,18.00
2023-09-28T00:17:26.969Z,17.90
2023-09-28T00:22:47.088Z,17.90
2023-09-28T00:28:05.762Z,17.90
2023-09-28T00:33:20.999Z,17.80
2023-09-28T00:38:39.698Z,17.70
2023-09-28T00:43:55.087Z,17.70
2023-09-28T00:49:13.642Z,17.70
2023-09-28T00:54:33.826Z,17.60
2023-09-28T00:59:54.034Z,17.60
2023-09-28T01:05:14.313Z,17.50
2023-09-28T01:10:32.956Z,17.50
2023-09-28T01:21:04.015Z,17.40
2023-09-28T01:26:22.750Z,17.30
2023-09-28T01:31:42.925Z,17.20
2023-09-28T01:37:03.146Z,17.20
2023-09-28T01:42:23.331Z,17.10
2023-09-28T01:47:38.582Z,17.00
2023-09-28T01:52:57.311Z,16.90
2023-09-28T01:58:15.969Z,16.80
2023-09-28T02:03:31.231Z,16.80
2023-09-28T02:08:51.417Z,16.70
2023-09-28T02:14:11.656Z,16.60
2023-09-28T02:19:31.828Z,16.50
2023-09-28T02:24:47.067Z,16.40
2023-09-28T02:30:05.755Z,16.30
2023-09-28T02:35:20.985Z,16.30
2023-09-28T02:40:39.714Z,16.20
2023-09-28T02:46:03.411Z,16.10
2023-09-28T02:51:23.605Z,16.00
2023-09-28T02:56:43.846Z,16.00
2023-09-28T03:02:02.649Z,15.90
2023-09-28T03:07:17.734Z,15.80
2023-09-28T03:12:32.984Z,15.80
2023-09-28T03:17:51.702Z,15.70
2023-09-28T03:23:11.900Z,15.70
2023-09-28T03:28:32.133Z,15.60
2023-09-28T03:33:52.448Z,15.50
2023-09-28T03:39:11.010Z,15.50
2023-09-28T03:44:26.264Z,15.40
2023-09-28T03:49:44.939Z,15.30
2023-09-28T03:55:00.199Z,15.30
2023-09-28T04:00:20.405Z,15.20
2023-09-28T04:05:40.576Z,15.10
2023-09-28T04:11:00.841Z,15.10
2023-09-28T04:16:19.600Z,15.10
2023-09-28T04:21:38.219Z,15.00
2023-09-28T04:26:53.430Z,14.90
2023-09-28T04:32:08.749Z,14.90
2023-09-28T04:37:27.383Z,14.90
2023-09-28T04:42:47.566Z,14.80
2023-09-28T04:48:07.834Z,14.80
2023-09-28T04:53:26.510Z,14.80
2023-09-28T04:58:45.241Z,14.70
2023-09-28T05:04:03.975Z,14.70
2023-09-28T05:09:22.643Z,14.70
2023-09-28T05:14:37.852Z,14.60
2023-09-28T05:19:58.109Z,14.60
2023-09-28T05:25:18.268Z,14.50
2023-09-28T16:54:39.767Z,20.60
2023-09-28T17:00:00.096Z,20.80
2023-09-28T17:05:20.899Z,21.00
2023-09-28T17:10:37.655Z,20.80
2023-09-28T17:15:56.303Z,20.60
2023-09-28T17:21:11.602Z,20.30
2023-09-28T17:26:26.838Z,20.00
2023-09-28T17:31:45.546Z,19.70
2023-09-28T17:37:05.949Z,19.50
2023-09-28T17:42:26.134Z,19.30
2023-09-28T17:47:46.975Z,19.10
2023-09-28T17:53:01.565Z,18.90
2023-09-28T17:58:16.840Z,18.70
2023-09-28T18:03:36.575Z,18.60
2023-09-28T18:08:51.776Z,18.50
2023-09-28T18:14:17.232Z,18.40
2023-09-28T18:19:38.546Z,18.30
2023-09-28T18:24:58.884Z,18.20
2023-09-28T18:30:14.334Z,18.10
2023-09-28T18:35:32.988Z,18.00
2023-09-28T18:40:51.684Z,17.80
2023-09-28T18:46:06.935Z,17.70
2023-09-28T18:51:27.115Z,17.60
2023-09-28T18:56:47.365Z,17.50
2023-09-28T19:02:07.581Z,17.40
2023-09-28T19:07:26.246Z,17.30
2023-09-28T19:12:41.473Z,17.20
2023-09-28T19:17:56.744Z,17.00
2023-09-28T19:23:15.404Z,17.00
2023-09-28T19:28:35.611Z,16.80
2023-09-28T19:33:56.166Z,16.80
2023-09-28T19:39:16.185Z,16.70
2023-09-28T19:44:36.419Z,16.60
2023-09-28T19:49:51.630Z,16.60
2023-09-28T19:55:06.861Z,16.50
2023-09-28T20:00:22.041Z,16.40
2023-09-28T20:05:37.338Z,16.30
2023-09-28T20:10:57.493Z,16.20
2023-09-28T20:16:17.775Z,16.20
2023-09-28T20:21:38.001Z,16.10
2023-09-28T20:26:53.209Z,16.00
2023-09-28T20:32:11.871Z,15.90
2023-09-28T20:37:27.102Z,15.90
2023-09-28T20:42:45.793Z,15.90
2023-09-28T20:48:06.118Z,15.80
2023-09-28T20:53:26.295Z,15.80
2023-09-28T20:58:46.435Z,15.80
2023-09-28T21:04:01.694Z,15.80
2023-09-28T21:09:20.415Z,15.80
2023-09-28T21:14:39.119Z,15.80
2023-09-28T21:19:54.289Z,15.80
2023-09-28T21:25:14.544Z,15.80
2023-09-28T21:30:34.719Z,15.80
2023-09-28T21:35:54.986Z,15.90
2023-09-28T21:41:13.666Z,15.90
2023-09-28T21:46:28.860Z,15.90
2023-09-28T21:51:44.070Z,15.90
2023-09-28T21:56:59.320Z,15.90
2023-09-28T22:02:14.489Z,15.90
2023-09-28T22:07:34.705Z,15.90
2023-09-28T22:12:54.941Z,16.00
2023-09-28T22:18:15.196Z,16.00
2023-09-28T22:23:33.896Z,16.00
2023-09-28T22:28:52.725Z,16.00
2023-09-28T22:34:11.279Z,16.10
2023-09-28T22:39:29.989Z,16.10
2023-09-28T22:44:50.315Z,16.10
2023-09-28T22:50:10.413Z,16.20
2023-09-28T22:55:30.624Z,16.20
2023-09-28T23:00:45.869Z,16.20
2023-09-28T23:06:01.060Z,16.20
2023-09-28T23:11:19.801Z,16.20
2023-09-28T23:16:38.506Z,16.30
2023-09-28T23:21:58.693Z,16.30
2023-09-28T23:27:18.943Z,16.30
2023-09-28T23:32:39.175Z,16.30
2023-09-28T23:37:58.423Z,16.30
2023-09-28T23:43:17.254Z,16.40
2023-09-28T23:48:36.208Z,16.40
2023-09-28T23:53:54.772Z,16.40
2023-09-28T23:59:13.436Z,16.40
